Kasese Airport

HUKS · Western Region, Uganda

METAR history HUKS · Kasese Airport

Below you see METARs of the last few days. Select a year to browse through older METARs, from the year 2007 onwards.

May 27, 2024

Time Code Weather Temp. Visibility Ceiling Wind METAR/SPECI
02:30
V
20 °C 10 km+ - 260° 260° 3 kt METAR HRYR 262330Z 26003KT 9999 FEW025 20/15 Q1023 NOSIG
02:00
V
20 °C 10 km+ - 330° 330° 4 kt METAR HRYR 262300Z 33004KT 9999 FEW025 20/15 Q1023 NOSIG
01:30
V
20 °C 10 km+ - 320° 320° 3 kt METAR HRYR 262230Z 32003KT 9999 FEW025 20/15 Q1023 NOSIG
01:00
V
20 °C 10 km+ - 280° 280° 5 kt METAR HRYR 262200Z 28005KT 9999 FEW025 20/15 Q1023 NOSIG
00:30
V
21 °C 10 km+ - 280° 280° 2 kt METAR HRYR 262130Z 28002KT 9999 FEW025 21/16 Q1023 NOSIG
00:00
V
21 °C 10 km+ - 320° 320° 2 kt METAR HRYR 262100Z 32002KT 9999 FEW025 21/15 Q1023 NOSIG

May 26, 2024

Time Code Weather Temp. Visibility Ceiling Wind METAR/SPECI
23:30
V
22 °C 10 km+ - 220° 220° 2 kt METAR HRYR 262030Z 22002KT 9999 FEW025 22/15 Q1022 NOSIG
23:00
V
22 °C 10 km+ - 330° 330° 3 kt METAR HRYR 262000Z 33003KT 9999 FEW025 22/15 Q1022 NOSIG
22:30
V
24 °C 10 km+ - 320° 320° 2 kt METAR HRYR 261930Z 32002KT 9999 FEW025 24/14 Q1022 NOSIG
22:00
V
23 °C 10 km+ - 270° 270° 3 kt METAR HRYR 261900Z 27003KT 9999 FEW025 SCT100 23/15 Q1022 NOSIG
21:30
V
22 °C 10 km+ - 050° 050° 4 kt METAR HRYR 261830Z 05004KT 9999 FEW025 SCT100 22/15 Q1022 NOSIG
21:00
V
25 °C 10 km+ - 250° 250° 3 kt METAR HRYR 261800Z 25003KT 9999 FEW025 25/14 Q1021 NOSIG
20:30
V
24 °C 10 km+ - 250° 250° 3 kt METAR HRYR 261730Z 25003KT 9999 FEW025 24/14 Q1021 NOSIG
20:00
V
24 °C 10 km+ - 180° 180° 4 kt METAR HRYR 261700Z 18004KT 9999 FEW025 24/14 Q1021 NOSIG
19:30
V
25 °C 10 km+ - 090° 090° 4 kt METAR HRYR 261630Z 09004KT 9999 FEW025 25/14 Q1020 NOSIG
19:00
V
25 °C 10 km+ - 120° 120° 5 kt METAR HRYR 261600Z 12005KT 9999 FEW025 25/14 Q1020 NOSIG
18:30
V
26 °C 10 km+ - 130° 130° 5 kt METAR HRYR 261530Z 13005KT 9999 FEW025 SCT100 26/14 Q1020 NOSIG
18:00
V
26 °C 10 km+ - 120° 120° 7 kt METAR HRYR 261500Z 12007KT 9999 FEW025 SCT100 26/14 Q1020 NOSIG
17:30
V
27 °C 10 km+ - 130° 130° 7 kt METAR HRYR 261430Z 13007KT 9999 FEW025 SCT100 27/14 Q1019 NOSIG
17:00
V
27 °C 10 km+ - 170° 170° 8 kt METAR HRYR 261400Z 17008KT 9999 FEW025 SCT100 27/13 Q1020 NOSIG
16:30
V
27 °C 10 km+ - 140° 140° 6 kt METAR HRYR 261330Z 14006KT 080V190 9999 SCT025 SCT100 27/14 Q1020 NOSIG
16:00
V
27 °C 10 km+ - 140° 140° 9 kt METAR HRYR 261300Z 14009KT 090V190 9999 SCT025 SCT100 27/13 Q1020 NOSIG
15:30
V
27 °C 10 km+ - 170° 170° 6 kt METAR HRYR 261230Z 17006KT 9999 SCT025 SCT100 27/14 Q1020 NOSIG
15:00
V
27 °C 10 km+ - 160° 160° 8 kt METAR HRYR 261200Z 16008KT 9999 SCT026 SCT100 27/14 Q1021 NOSIG
14:30
V
27 °C 10 km+ - Var Var 3 kt METAR HRYR 261130Z VRB03KT 9999 SCT025 27/14 Q1021 NOSIG
14:00
V
26 °C 10 km+ - 160° 160° 7 kt METAR HRYR 261100Z 16007KT 120V200 9999 SCT025 26/13 Q1022 NOSIG
13:30
V
26 °C 10 km+ - 160° 160° 6 kt METAR HRYR 261030Z 16006KT 070V220 9999 SCT025 SCT100 26/14 Q1022 NOSIG
13:00
V
25 °C 10 km+ - 180° 180° 6 kt METAR HRYR 261000Z 18006KT 130V240 9999 SCT025 25/15 Q1023 NOSIG
12:30
V
25 °C 10 km+ - 200° 200° 5 kt METAR HRYR 260930Z 20005KT 160V250 9999 SCT025 SCT100 25/14 Q1023 NOSIG
12:00
V
26 °C 10 km+ - 210° 210° 7 kt METAR HRYR 260900Z 21007KT 160V270 9999 SCT025 26/15 Q1023 NOSIG
11:30
V
25 °C 10 km+ - 190° 190° 8 kt METAR HRYR 260830Z 19008KT 140V2440 9999 SCT025 25/15 Q1024 NOSIG
11:00
V
25 °C 10 km+ - 190° 190° 7 kt METAR HRYR 260800Z 19007KT 120V250 9999 FEW025 25/15 Q1023 NOSIG
10:30
V
24 °C 10 km+ - 200° 200° 7 kt METAR HRYR 260730Z 20007KT 160V230 9999 FEW025 24/15 Q1023 NOSIG
10:00
V
23 °C 10 km+ - Var Var 3 kt METAR HRYR 260700Z VRB03KT 9999 FEW025 SCT100 23/14 Q1023 NOSIG
09:30
V
22 °C 10 km+ - 010° 010° 3 kt METAR HRYR 260630Z 01003KT 9999 FEW025 SCT100 22/16 Q1023 NOSIG
09:00
V
20 °C 10 km+ - 360° 360° 0 kt METAR HRYR 260600Z 00000KT 9999 FEW025 SCT100 20/16 Q1023 NOSIG
08:30
V
19 °C 10 km+ 10,000 ft 250° 250° 4 kt METAR HRYR 260530Z 25004KT 9999 FEW025 BKN100 19/16 Q1023 NOSIG
08:00
V
19 °C 10 km+ 10,000 ft 350° 350° 4 kt METAR HRYR 260500Z 35004KT 9999 FEW030 BKN100 19/16 Q1022 NOSIG
07:30
V
19 °C 10 km+ - 270° 270° 3 kt METAR HRYR 260430Z 27003KT 9999 SCT025 SCT100 19/15 Q1022 NOSIG
07:00
V
20 °C 10 km+ 10,000 ft 290° 290° 3 kt METAR HRYR 260400Z 29003KT 9999 SCT025 BKN100 20/15 Q1022 NOSIG
06:30
V
19 °C 10 km+ 10,000 ft 300° 300° 3 kt METAR HRYR 260330Z 30003KT 9999 SCT025 BKN100 19/16 Q1022 NOSIG
06:00
V
19 °C 10 km+ 10,000 ft Var Var 2 kt METAR HRYR 260300Z VRB02KT 9999 SCT025 BKN100 19/16 Q1021 NOSIG
05:30
V
19 °C 10 km+ 10,000 ft 350° 350° 4 kt METAR HRYR 260230Z 35004KT 9999 SCT025 BKN100 19/16 Q1021 NOSIG
05:00
V
20 °C 10 km+ 10,000 ft 320° 320° 3 kt METAR HRYR 260200Z 32003KT 9999 SCT025 BKN100 20/15 Q1021 NOSIG
04:30
V
20 °C 10 km+ 10,000 ft 360° 360° 0 kt METAR HRYR 260130Z 00000KT 9999 SCT025 BKN100 20/15 Q1021 NOSIG
04:00
V
21 °C 10 km+ 10,000 ft 360° 360° 0 kt METAR HRYR 260100Z 00000KT 9999 SCT025 BKN100 21/15 Q1021 NOSIG
03:30
V
20 °C 10 km+ 10,000 ft 360° 360° 3 kt METAR HRYR 260030Z 36003KT 9999 SCT025 BKN100 20/15 Q1021 NOSIG
03:00
V
20 °C 10 km+ 10,000 ft 350° 350° 3 kt METAR HRYR 260000Z 35003KT 310V020 9999 SCT025 BKN100 20/15 Q1021 NOSIG
02:30
V
21 °C 10 km+ - 310° 310° 4 kt METAR HRYR 252330Z 31004KT 9999 SCT025 SCT100 21/15 Q1021 NOSIG
02:00
V
21 °C 10 km+ 10,000 ft 330° 330° 3 kt METAR HRYR 252300Z 33003KT 9999 SCT025 BKN100 21/15 Q1021 NOSIG
01:30
V
21 °C 10 km+ 10,000 ft 360° 360° 0 kt METAR HRYR 252230Z 00000KT 9999 SCT025 BKN100 21/16 Q1022 NOSIG
01:00
V
21 °C 10 km+ - Var Var 2 kt METAR HRYR 252200Z VRB02KT 9999 SCT025 SCT100 21/15 Q1022 NOSIG
00:30
V
21 °C 10 km+ - 290° 290° 4 kt METAR HRYR 252130Z 29004KT 270V340 9999 SCT025 SCT100 21/15 Q1022 NOSIG
00:00
V
22 °C 10 km+ - 310° 310° 4 kt METAR HRYR 252100Z 31004KT 9999 SCT025 SCT100 22/15 Q1022 NOSIG

May 25, 2024

Time Code Weather Temp. Visibility Ceiling Wind METAR/SPECI
23:30
V
22 °C 10 km+ - 290° 290° 4 kt METAR HRYR 252030Z 29004KT 9999 FEW025 SCT100 22/15 Q1022 NOSIG
23:00
V
22 °C 10 km+ - 310° 310° 2 kt METAR HRYR 252000Z 31002KT 9999 FEW025 SCT100 22/15 Q1022 NOSIG
22:30
V
23 °C 10 km+ - 020° 020° 2 kt METAR HRYR 251930Z 02002KT 9999 SCT025 SCT100 23/14 Q1022 NOSIG
22:00
V
23 °C 10 km+ - Var Var 2 kt METAR HRYR 251900Z VRB02KT 9999 FEW025 SCT100 23/14 Q1022 NOSIG
21:30
V
24 °C 10 km+ - 100° 100° 3 kt METAR HRYR 251830Z 10003KT 9999 FEW025 24/13 Q1021 NOSIG
21:00
V
23 °C 10 km+ - 030° 030° 3 kt METAR HRYR 251800Z 03003KT 9999 FEW025 23/14 Q1021 NOSIG
20:30
V
24 °C 10 km+ - 090° 090° 2 kt METAR HRYR 251730Z 09002KT 9999 FEW025 24/14 Q1021 NOSIG
20:00
V
24 °C 10 km+ - 090° 090° 3 kt METAR HRYR 251700Z 09003KT 9999 FEW025 24/14 Q1020 NOSIG
19:30
V
24 °C 10 km+ - 100° 100° 5 kt METAR HRYR 251630Z 10005KT 9999 SCT025 24/14 Q1020 NOSIG
19:00
V
24 °C 10 km+ - 140° 140° 3 kt METAR HRYR 251600Z 14003KT 110V170 9999 SCT025 24/14 Q1019 NOSIG
18:30
V
25 °C 10 km+ - 130° 130° 8 kt METAR HRYR 251530Z 13008KT 090V170 9999 SCT025 SCT100 25/14 Q1019 NOSIG
18:00
V
26 °C 10 km+ - 140° 140° 8 kt METAR HRYR 251500Z 14008KT 110V180 9999 SCT025 SCT100 26/14 Q1019 NOSIG
17:30
V
26 °C 10 km+ - 130° 130° 5 kt METAR HRYR 251430Z 13005KT 090V180 9999 SCT025 26/12 Q1019 NOSIG
17:00
V
27 °C 10 km+ - 140° 140° 6 kt METAR HRYR 251400Z 14006KT 100V190 9999 SCT025 27/12 Q1019 NOSIG
16:30
V
28 °C 10 km+ - 130° 130° 4 kt METAR HRYR 251330Z 13004KT 080V210 9999 SCT025 28/14 Q1019 NOSIG
16:00
V
27 °C 10 km+ - 130° 130° 5 kt METAR HRYR 251300Z 13005KT 050V190 9999 SCT025 27/12 Q1019 NOSIG
15:30
V
27 °C 10 km+ - Var Var 6 kt METAR HRYR 251230Z VRB06KT 9999 SCT025 27/11 Q1020 NOSIG
15:00
V
27 °C 10 km+ - 150° 150° 7 kt METAR HRYR 251200Z 15007KT 100V190 9999 SCT025 27/11 Q1020 NOSIG
14:30
V
26 °C 10 km+ - 160° 160° 8 kt METAR HRYR 251130Z 16008KT 130V200 9999 SCT025 26/12 Q1021 NOSIG
14:00
V
26 °C 10 km+ - 160° 160° 9 kt METAR HRYR 251100Z 16009KT 110V210 9999 SCT025 26/12 Q1021 NOSIG
13:30
M
26 °C 10 km+ 2,300 ft 160° 160° 8 kt METAR HRYR 251030Z 16008KT 100V230 9999 BKN023 26/14 Q1022 NOSIG
13:00
M
26 °C 10 km+ 2,300 ft 160° 160° 7 kt METAR HRYR 251000Z 16007KT 090V200 9999 BKN023 26/15 Q1022 NOSIG
12:30
V
25 °C 10 km+ - 140° 140° 7 kt METAR HRYR 250930Z 14007KT 060V210 9999 SCT023 25/15 Q1023 NOSIG
12:00
V
24 °C 10 km+ - 180° 180° 7 kt METAR HRYR 250900Z 18007KT 9999 SCT023 24/15 Q1023 NOSIG
11:30
V
24 °C 10 km+ - 130° 130° 6 kt METAR HRYR 250830Z 13006KT 100V200 9999 SCT025 24/16 Q1023 NOSIG
11:00
V
24 °C 10 km+ - 120° 120° 6 kt METAR HRYR 250800Z 12006KT 9999 SCT025 24/15 Q1024 NOSIG
10:30
V
23 °C 10 km+ - 180° 180° 7 kt METAR HRYR 250730Z 18007KT 9999 FEW020 23/15 Q1024 NOSIG
10:00
V
23 °C 10 km+ - 200° 200° 6 kt METAR HRYR 250700Z 20006KT 9999 FEW020 23/15 Q1024 NOSIG
09:30
V
22 °C 10 km+ - 300° 300° 5 kt METAR HRYR 250630Z 30005KT 9999 FEW020 22/15 Q1023 NOSIG
09:00
V
22 °C 10 km+ - 340° 340° 3 kt METAR HRYR 250600Z 34003KT 9999 FEW020 22/15 Q1023 NOSIG
08:30
V
20 °C 10 km+ - 320° 320° 5 kt METAR HRYR 250530Z 32005KT 9999 FEW020 20/15 Q1023 NOSIG
08:00
V
19 °C 10 km+ - 310° 310° 3 kt METAR HRYR 250500Z 31003KT 9999 FEW020 19/16 Q1022 NOSIG
07:30
V
18 °C 10 km+ - 330° 330° 4 kt METAR HRYR 250430Z 33004KT 300V360 9999 FEW022 18/16 Q1022 NOSIG
07:00
V
17 °C 10 km+ - 340° 340° 4 kt METAR HRYR 250400Z 34004KT 9999 FEW022 17/16 Q1022 NOSIG
06:30
V
18 °C 10 km+ - 360° 360° 0 kt METAR HRYR 250330Z 00000KT 9999 FEW023 18/16 Q1021 NOSIG
06:00
V
18 °C 10 km+ - 340° 340° 3 kt METAR HRYR 250300Z 34003KT 9999 FEW023 18/16 Q1021 NOSIG
05:30
V
18 °C 10 km+ - 010° 010° 3 kt METAR HRYR 250230Z 01003KT 9999 FEW023 18/15 Q1021 NOSIG
05:00
V
19 °C 10 km+ - 300° 300° 3 kt METAR HRYR 250200Z 30003KT 9999 FEW023 19/15 Q1020 NOSIG
04:30
V
18 °C 10 km+ - 350° 350° 4 kt METAR HRYR 250130Z 35004KT 9999 FEW023 18/15 Q1020 NOSIG
04:00
V
19 °C 10 km+ - 340° 340° 4 kt METAR HRYR 250100Z 34004KT 9999 FEW023 19/15 Q1020 NOSIG
03:30
V
19 °C 10 km+ - 360° 360° 0 kt METAR HRYR 250030Z 00000KT 9999 FEW023 19/16 Q1020 NOSIG
03:00
V
20 °C 10 km+ - 360° 360° 0 kt METAR HRYR 250000Z 00000KT 9999 FEW020 20/16 Q1021 NOSIG
02:30
V
20 °C 10 km+ - 220° 220° 3 kt METAR HRYR 242330Z 22003KT 180V260 9999 FEW020 20/16 Q1021 NOSIG
02:00
V
20 °C 10 km+ - 280° 280° 4 kt METAR HRYR 242300Z 28004KT 9999 FEW022 20/16 Q1021 NOSIG
01:30
V
21 °C 10 km+ - Var Var 2 kt METAR HRYR 242230Z VRB02KT 9999 FEW022 21/16 Q1021 NOSIG
01:00
V
21 °C 10 km+ - Var Var 2 kt METAR HRYR 242200Z VRB02KT 9999 FEW022 21/15 Q1021 NOSIG
00:30
V
21 °C 10 km+ - 360° 360° 0 kt METAR HRYR 242130Z 00000KT 9999 FEW022 21/15 Q1022 NOSIG
00:00
V
22 °C 10 km+ - 360° 360° 0 kt METAR HRYR 242100Z 00000KT 9999 SCT024 22/15 Q1022 NOSIG

May 24, 2024

Time Code Weather Temp. Visibility Ceiling Wind METAR/SPECI
23:30
V
22 °C 10 km+ - 360° 360° 0 kt METAR HRYR 242030Z 00000KT 9999 SCT024 22/15 Q1022 NOSIG
23:00
V
23 °C 10 km+ - 360° 360° 0 kt METAR HRYR 242000Z 00000KT 9999 SCT025 23/15 Q1022 NOSIG
22:30
V
23 °C 10 km+ - Var Var 2 kt METAR HRYR 241930Z VRB02KT 9999 SCT025 23/14 Q1021 NOSIG
22:00
V
23 °C 10 km+ - 350° 350° 4 kt METAR HRYR 241900Z 35004KT 9999 SCT025 SCT100 23/15 Q1021 NOSIG
21:30
V
22 °C 10 km+ - 020° 020° 5 kt METAR HRYR 241830Z 02005KT 9999 FEW025 22/15 Q1021 NOSIG
21:00
V
23 °C 10 km+ - 050° 050° 4 kt METAR HRYR 241800Z 05004KT 9999 FEW025 23/15 Q1020 NOSIG
20:30
V
25 °C 10 km+ - 060° 060° 2 kt METAR HRYR 241730Z 06002KT 9999 FEW025 25/14 Q1019 NOSIG
20:00
V
25 °C 10 km+ - 060° 060° 2 kt METAR HRYR 241700Z 06002KT 9999 FEW025 25/14 Q1019 NOSIG
19:30
V
25 °C 10 km+ - 040° 040° 3 kt METAR HRYR 241630Z 04003KT 9999 FEW025 25/15 Q1019 NOSIG
19:00
V
25 °C 10 km+ - 040° 040° 4 kt METAR HRYR 241600Z 04004KT 9999 FEW025 25/14 Q1019 NOSIG
18:30
V
26 °C 10 km+ - 100° 100° 4 kt METAR HRYR 241530Z 10004KT 130V230 9999 SCT025 26/15 Q1019 NOSIG
18:00
V
26 °C 10 km+ - 180° 180° 4 kt METAR HRYR 241500Z 18004KT 130V230 9999 SCT025 26/13 Q1019 NOSIG
17:30
V
27 °C 10 km+ - 150° 150° 5 kt METAR HRYR 241430Z 15005KT 080V190 9999 SCT025 27/14 Q1019 NOSIG
17:00
V
27 °C 10 km+ - 150° 150° 5 kt METAR HRYR 241400Z 15005KT 080V190 9999 SCT025 27/13 Q1019 NOSIG
16:30
V
27 °C 10 km+ - 150° 150° 5 kt METAR HRYR 241330Z 15005KT 9999 SCT025 27/14 Q1019 NOSIG
16:00
V
27 °C 10 km+ - 120° 120° 6 kt METAR HRYR 241300Z 12006KT 9999 SCT025 27/14 Q1019 NOSIG
15:30
V
25 °C 10 km+ - 140° 140° 7 kt METAR HRYR 241230Z 14007KT 9999 SCT025 25/14 Q1020 NOSIG
15:00
V
26 °C 10 km+ - 150° 150° 4 kt METAR HRYR 241200Z 15004KT 9999 SCT025 26/14 Q1020 NOSIG
14:30
V
26 °C 10 km+ - 150° 150° 4 kt METAR HRYR 241130Z 15004KT 090V210 9999 SCT025 26/14 Q1021 NOSIG
14:00
V
26 °C 10 km+ - 130° 130° 3 kt METAR HRYR 241100Z 13003KT 9999 SCT025 26/15 Q1021 NOSIG
13:30
V
26 °C 10 km+ - 180° 180° 5 kt METAR HRYR 241030Z 18005KT 100V250 9999 SCT024 26/15 Q1022 NOSIG
13:00
V
24 °C 10 km+ - 170° 170° 7 kt METAR HRYR 241000Z 17007KT 130V210 9999 SCT024 24/15 Q1023 NOSIG
12:30
V
25 °C 10 km+ - 150° 150° 8 kt METAR HRYR 240930Z 15008KT 100V180 9999 SCT023 25/15 Q1023 NOSIG
12:00
V
25 °C 10 km+ - 160° 160° 7 kt METAR HRYR 240900Z 16007KT 110V220 9999 SCT023 25/16 Q1024 NOSIG
11:30
V
23 °C 10 km+ - 150° 150° 6 kt METAR HRYR 240830Z 15006KT 100V180 9999 SCT023 23/15 Q1024 NOSIG
11:00
M
24 °C 10 km+ 2,300 ft 170° 170° 6 kt METAR HRYR 240800Z 17006KT 110V220 9999 BKN023 24/16 Q1024 NOSIG
10:30
M
22 °C 10 km+ 2,300 ft 210° 210° 5 kt METAR HRYR 240730Z 21005KT 160V260 9999 BKN023 22/16 Q1024 NOSIG
10:00
M
23 °C 10 km+ 2,300 ft 200° 200° 7 kt METAR HRYR 240700Z 20007KT 9999 BKN023 23/17 Q1024 NOSIG
09:30
M
22 °C 10 km+ 2,200 ft 170° 170° 5 kt METAR HRYR 240630Z 17005KT 9999 BKN022 22/16 Q1024 NOSIG
09:00
V
22 °C 10 km+ - 170° 170° 3 kt METAR HRYR 240600Z 17003KT 130V220 9999 SCT022 22/17 Q1024 NOSIG
Report a change